createdAt,value
2018-06-05T00:00:25.853Z,97.30
2018-06-05T00:02:54.693Z,97.10
2018-06-05T00:05:23.377Z,96.90
2018-06-05T00:07:52.233Z,97.00
2018-06-05T00:10:20.807Z,96.60
2018-06-05T00:12:49.379Z,96.50
2018-06-05T00:15:18.076Z,96.50
2018-06-05T00:17:46.652Z,96.50
2018-06-05T00:20:15.154Z,96.60
2018-06-05T00:22:43.771Z,96.40
2018-06-05T00:25:12.468Z,96.40
2018-06-05T00:27:41.075Z,96.60
2018-06-05T00:30:09.561Z,96.70
2018-06-05T00:32:38.303Z,96.60
2018-06-05T00:35:06.793Z,96.50
2018-06-05T00:37:35.368Z,96.60
2018-06-05T00:40:04.144Z,96.50
2018-06-05T00:42:32.680Z,96.60
2018-06-05T00:45:01.214Z,96.60
2018-06-05T00:47:29.803Z,96.50
2018-06-05T00:49:58.643Z,96.50
2018-06-05T00:52:27.163Z,96.50
2018-06-05T00:54:56.102Z,96.40
2018-06-05T00:57:24.675Z,96.30
2018-06-05T00:59:53.361Z,96.10
2018-06-05T01:02:22.049Z,96.00
2018-06-05T01:04:50.755Z,96.10
2018-06-05T01:07:19.266Z,96.20
2018-06-05T01:09:47.799Z,96.20
2018-06-05T01:12:16.595Z,95.90
2018-06-05T01:14:45.087Z,95.90
2018-06-05T01:17:13.574Z,95.70
2018-06-05T01:19:42.112Z,95.00
2018-06-05T01:22:10.838Z,95.20
2018-06-05T01:24:39.408Z,94.80
2018-06-05T01:27:12.325Z,94.90
2018-06-05T01:29:41.030Z,94.80
2018-06-05T01:32:09.532Z,94.40
2018-06-05T01:34:38.193Z,94.30
2018-06-05T01:37:06.904Z,94.50
2018-06-05T01:39:35.414Z,95.00
2018-06-05T01:42:03.908Z,95.20
2018-06-05T01:44:32.439Z,95.00
2018-06-05T01:47:00.896Z,95.10
2018-06-05T01:49:34.607Z,95.20
2018-06-05T01:52:03.301Z,95.20
2018-06-05T01:54:31.959Z,95.20
2018-06-05T01:57:00.562Z,95.00
2018-06-05T01:59:29.615Z,95.10
2018-06-05T02:01:58.219Z,94.90
2018-06-05T02:04:26.713Z,94.90
2018-06-05T02:06:55.448Z,94.80
2018-06-05T02:09:23.971Z,94.90
2018-06-05T02:14:20.752Z,95.20
2018-06-05T02:16:49.284Z,95.20
2018-06-05T02:19:17.890Z,95.10
2018-06-05T02:24:14.785Z,95.50
2018-06-05T02:26:43.385Z,95.60
2018-06-05T02:29:11.944Z,95.70
2018-06-05T02:31:40.473Z,95.90
2018-06-05T02:34:08.927Z,95.00
2018-06-05T02:36:37.643Z,95.20
2018-06-05T02:39:07.369Z,95.40
2018-06-05T02:41:36.121Z,95.60
2018-06-05T02:44:04.840Z,95.90
2018-06-05T02:46:33.416Z,96.10
2018-06-05T02:49:01.955Z,96.10
2018-06-05T02:51:30.513Z,95.90
2018-06-05T02:53:59.012Z,95.80
2018-06-05T02:56:27.789Z,95.90
2018-06-05T02:58:56.320Z,95.00
2018-06-05T03:01:25.014Z,94.90
2018-06-05T03:03:53.550Z,95.00
2018-06-05T03:06:22.075Z,94.40
2018-06-05T03:08:50.620Z,94.10
2018-06-05T03:11:19.758Z,94.00
2018-06-05T03:13:48.284Z,94.10
2018-06-05T03:16:16.775Z,94.50
2018-06-05T03:18:45.567Z,94.60
2018-06-05T03:21:14.113Z,94.20
2018-06-05T03:23:42.694Z,94.30
2018-06-05T03:26:11.257Z,94.20
2018-06-05T03:28:39.778Z,94.40
2018-06-05T03:31:08.324Z,94.10
2018-06-05T03:33:36.854Z,94.30
2018-06-05T03:36:05.790Z,94.60
2018-06-05T03:38:34.581Z,94.60
2018-06-05T03:41:03.077Z,93.80
2018-06-05T03:45:59.810Z,93.20
2018-06-05T03:48:28.449Z,93.10
2018-06-05T03:50:57.258Z,92.70
2018-06-05T03:53:25.969Z,92.80
2018-06-05T03:55:54.532Z,92.90
2018-06-05T03:58:23.272Z,92.80
2018-06-05T04:00:52.092Z,92.90
2018-06-05T04:03:20.637Z,93.30
2018-06-05T04:05:49.292Z,93.50
2018-06-05T04:08:18.171Z,94.00
2018-06-05T04:10:46.746Z,94.10
2018-06-05T04:13:15.240Z,95.00
2018-06-05T04:15:43.865Z,94.10
2018-06-05T04:18:12.441Z,94.10
2018-06-05T04:20:40.949Z,94.20
2018-06-05T04:23:09.548Z,93.80
2018-06-05T04:25:38.332Z,93.70
2018-06-05T04:30:35.094Z,92.30
2018-06-05T04:33:03.583Z,92.10
2018-06-05T04:35:32.093Z,92.50
2018-06-05T04:38:00.963Z,92.60
2018-06-05T04:40:29.463Z,92.80
2018-06-05T04:42:58.472Z,92.90
2018-06-05T04:45:27.187Z,93.00
2018-06-05T04:47:55.696Z,93.00
2018-06-05T04:50:24.171Z,92.90
2018-06-05T04:52:52.741Z,93.00
2018-06-05T04:55:21.210Z,93.00
2018-06-05T04:57:50.223Z,92.90
2018-06-05T05:00:18.816Z,92.90
2018-06-05T05:02:47.392Z,91.90
2018-06-05T05:05:15.901Z,91.90
2018-06-05T05:07:44.432Z,91.70
2018-06-05T05:12:41.411Z,91.20
2018-06-05T05:15:10.070Z,91.70
2018-06-05T05:17:38.608Z,92.00
2018-06-05T05:20:07.156Z,92.40
2018-06-05T05:22:35.902Z,92.50
2018-06-05T05:25:04.520Z,92.50
2018-06-05T05:27:33.050Z,92.90
2018-06-05T05:30:01.588Z,92.50
2018-06-05T05:32:30.135Z,91.90
2018-06-05T05:34:59.186Z,91.90
2018-06-05T05:37:27.780Z,91.70
2018-06-05T05:39:56.486Z,91.00
2018-06-05T05:42:25.224Z,91.30
2018-06-05T05:44:53.776Z,91.40
2018-06-05T05:47:22.361Z,91.10
2018-06-05T05:49:50.847Z,91.20
2018-06-05T05:52:19.384Z,91.60
2018-06-05T05:54:48.045Z,91.40
2018-06-05T05:57:16.512Z,91.70
2018-06-05T05:59:45.153Z,91.70
2018-06-05T06:02:13.991Z,91.70
2018-06-05T06:04:42.664Z,91.90
2018-06-05T06:07:11.186Z,91.80
2018-06-05T06:09:39.753Z,91.90
2018-06-05T06:12:08.416Z,91.30
2018-06-05T06:14:37.075Z,91.60
2018-06-05T06:19:33.995Z,91.80
2018-06-05T06:22:02.524Z,92.20
2018-06-05T06:24:31.346Z,92.40
2018-06-05T06:26:59.926Z,92.50
2018-06-05T06:31:56.822Z,92.70
2018-06-05T06:34:25.587Z,92.90
2018-06-05T06:36:54.117Z,92.70
2018-06-05T06:39:22.739Z,92.60
2018-06-05T06:41:51.358Z,93.10
2018-06-05T06:44:20.008Z,92.70
2018-06-05T06:46:48.533Z,92.70
2018-06-05T06:49:17.537Z,92.70
2018-06-05T06:51:46.142Z,92.20
2018-06-05T06:54:14.653Z,92.10
2018-06-05T06:56:43.131Z,92.40
2018-06-05T06:59:11.766Z,91.20
2018-06-05T07:01:40.346Z,91.00
2018-06-05T07:04:08.985Z,90.70
2018-06-05T07:06:37.529Z,90.30
2018-06-05T07:09:08.131Z,90.50
2018-06-05T07:11:37.299Z,90.30
2018-06-05T07:14:05.794Z,90.40
2018-06-05T07:16:34.356Z,90.10
2018-06-05T07:19:02.966Z,90.00
2018-06-05T07:21:31.501Z,90.30
2018-06-05T07:24:01.273Z,90.10
2018-06-05T07:26:29.862Z,90.00
2018-06-05T07:28:58.604Z,89.00
2018-06-05T07:31:27.340Z,88.90
2018-06-05T07:33:55.966Z,89.90
2018-06-05T07:36:24.871Z,89.30
2018-06-05T07:38:53.560Z,89.50
2018-06-05T07:41:22.960Z,89.30
2018-06-05T07:43:51.512Z,88.60
2018-06-05T07:46:20.256Z,88.80
2018-06-05T07:48:48.975Z,89.30
2018-06-05T07:53:45.710Z,86.20
2018-06-05T07:56:14.497Z,85.50
2018-06-05T07:58:43.048Z,86.70
2018-06-05T08:01:11.584Z,86.00
2018-06-05T08:03:40.128Z,86.20
2018-06-05T08:06:08.833Z,86.20
2018-06-05T08:08:37.383Z,86.20
2018-06-05T08:11:06.254Z,87.80
2018-06-05T08:13:34.784Z,89.40
2018-06-05T08:16:03.317Z,90.00
2018-06-05T08:18:31.945Z,90.10
2018-06-05T08:21:00.446Z,90.60
2018-06-05T08:23:28.975Z,90.70
2018-06-05T08:25:57.623Z,90.90
2018-06-05T08:28:26.120Z,90.50
2018-06-05T08:30:54.610Z,90.60
2018-06-05T08:33:23.235Z,90.40
2018-06-05T08:35:51.949Z,89.20
2018-06-05T08:40:48.704Z,88.90
2018-06-05T08:43:17.245Z,89.40
2018-06-05T08:45:45.737Z,88.30
2018-06-05T08:48:14.349Z,86.70
2018-06-05T08:50:42.896Z,84.30
2018-06-05T08:53:11.390Z,83.40
2018-06-05T08:55:40.028Z,83.10
2018-06-05T08:58:09.028Z,82.40
2018-06-05T09:00:37.654Z,81.10
2018-06-05T09:03:06.446Z,79.30
2018-06-05T09:05:35.376Z,78.40
2018-06-05T09:08:04.075Z,78.00
2018-06-05T09:10:32.758Z,76.30
2018-06-05T09:13:01.247Z,75.50
2018-06-05T09:15:29.944Z,75.90
2018-06-05T09:17:58.630Z,76.80
2018-06-05T09:20:27.797Z,77.80
2018-06-05T09:22:56.423Z,78.50
2018-06-05T09:25:25.040Z,79.50
2018-06-05T09:27:53.648Z,78.70
2018-06-05T09:30:22.569Z,79.60
2018-06-05T09:32:51.287Z,80.70
2018-06-05T09:35:19.789Z,79.40
2018-06-05T09:37:48.626Z,77.60
2018-06-05T09:40:17.250Z,74.40
2018-06-05T09:42:45.781Z,73.60
2018-06-05T09:45:14.663Z,72.10
2018-06-05T09:47:43.456Z,71.10
2018-06-05T09:50:12.011Z,71.40
2018-06-05T09:55:08.977Z,70.70
2018-06-05T10:00:05.928Z,69.80
2018-06-05T10:05:03.120Z,66.80
2018-06-05T10:07:31.844Z,66.80
2018-06-05T10:10:00.367Z,67.60
2018-06-05T10:12:29.082Z,68.20
2018-06-05T10:14:57.611Z,68.00
2018-06-05T10:17:26.397Z,66.10
2018-06-05T10:19:55.474Z,64.60
2018-06-05T10:22:24.394Z,63.50
2018-06-05T10:24:53.133Z,64.20
2018-06-05T10:27:21.812Z,63.30
2018-06-05T10:29:50.336Z,62.80
2018-06-05T10:32:18.873Z,64.40
2018-06-05T10:34:47.489Z,65.20
2018-06-05T10:37:15.998Z,66.20
2018-06-05T10:39:44.714Z,64.20
2018-06-05T10:42:13.244Z,63.90
2018-06-05T10:44:41.809Z,62.60
2018-06-05T10:47:10.316Z,61.70
2018-06-05T10:49:38.908Z,62.90
2018-06-05T10:52:07.448Z,63.70
2018-06-05T10:54:35.938Z,63.30
2018-06-05T10:57:04.607Z,63.50
2018-06-05T10:59:33.166Z,62.50
2018-06-05T11:02:01.853Z,62.20
2018-06-05T11:06:58.691Z,65.00
2018-06-05T11:09:27.236Z,63.00
2018-06-05T11:11:55.749Z,63.60
2018-06-05T11:14:24.515Z,61.60
2018-06-05T11:16:53.049Z,60.90
2018-06-05T11:19:21.748Z,59.00
2018-06-05T11:21:50.288Z,59.80
2018-06-05T11:24:18.821Z,60.40
2018-06-05T11:26:47.511Z,60.30
2018-06-05T11:29:16.060Z,61.20
2018-06-05T11:31:44.599Z,62.50
2018-06-05T11:34:13.319Z,63.90
2018-06-05T11:36:42.034Z,64.00
2018-06-05T11:39:10.695Z,61.80
2018-06-05T11:41:39.477Z,60.50
2018-06-05T11:46:37.034Z,59.10
2018-06-05T11:49:05.916Z,59.10
2018-06-05T11:51:34.400Z,57.40
2018-06-05T11:54:03.063Z,57.70
2018-06-05T11:56:31.698Z,57.10
2018-06-05T11:59:00.678Z,57.70
2018-06-05T12:01:29.201Z,57.70
2018-06-05T12:03:57.835Z,55.70
2018-06-05T12:06:26.508Z,54.50
2018-06-05T12:08:55.302Z,52.30
2018-06-05T12:11:23.851Z,51.80
2018-06-05T12:13:52.718Z,50.90
2018-06-05T12:16:21.313Z,50.10
2018-06-05T12:18:49.958Z,46.30
2018-06-05T12:21:18.540Z,45.00
2018-06-05T12:23:47.230Z,43.50
2018-06-05T12:26:16.331Z,43.30
2018-06-05T12:28:45.023Z,44.10
2018-06-05T12:31:13.580Z,43.00
2018-06-05T12:33:42.211Z,42.30
2018-06-05T12:36:11.286Z,40.90
2018-06-05T12:38:40.200Z,42.90
2018-06-05T12:41:08.866Z,43.60
2018-06-05T12:43:37.752Z,40.90
2018-06-05T12:46:06.330Z,38.70
2018-06-05T12:48:35.067Z,36.30
2018-06-05T12:51:03.942Z,34.30
2018-06-05T12:53:32.526Z,33.60
2018-06-05T12:56:01.469Z,36.50
2018-06-05T12:58:30.055Z,38.70
2018-06-05T13:00:58.630Z,35.90
2018-06-05T13:03:27.674Z,35.50
2018-06-05T13:05:56.476Z,36.50
2018-06-05T13:08:25.338Z,36.90
2018-06-05T13:10:54.173Z,39.60
2018-06-05T13:13:22.932Z,38.30
2018-06-05T13:15:51.933Z,35.00
2018-06-05T13:18:20.771Z,38.50
2018-06-05T13:20:49.476Z,36.30
2018-06-05T13:23:18.268Z,34.40
2018-06-05T13:25:47.011Z,35.20
2018-06-05T13:28:15.673Z,33.60
2018-06-05T13:30:45.313Z,33.90
2018-06-05T13:33:13.857Z,35.10
2018-06-05T13:35:42.828Z,35.50
2018-06-05T13:38:11.388Z,34.80
2018-06-05T13:40:40.036Z,37.50
2018-06-05T13:43:08.683Z,38.50
2018-06-05T13:45:37.337Z,40.20
2018-06-05T13:48:06.109Z,39.00
2018-06-05T13:50:34.628Z,35.80
2018-06-05T13:53:03.542Z,37.00
2018-06-05T13:55:32.297Z,35.10
2018-06-05T13:58:00.851Z,33.50
2018-06-05T14:02:57.724Z,36.50
2018-06-05T14:05:26.583Z,35.50
2018-06-05T14:07:55.307Z,36.90
2018-06-05T14:10:24.224Z,38.70
2018-06-05T14:12:52.995Z,39.90
2018-06-05T14:15:21.868Z,40.10
2018-06-05T14:17:50.900Z,40.40
2018-06-05T14:20:19.859Z,39.50
2018-06-05T14:25:16.810Z,38.70
2018-06-05T14:27:45.442Z,34.40
2018-06-05T14:30:14.232Z,30.20
2018-06-05T14:32:42.968Z,31.00
2018-06-05T14:35:11.643Z,28.70
2018-06-05T14:37:40.235Z,30.10
2018-06-05T14:40:09.157Z,31.40
2018-06-05T14:42:38.073Z,31.20
2018-06-05T14:45:06.950Z,30.80
2018-06-05T14:47:35.542Z,30.00
2018-06-05T14:50:04.159Z,29.40
2018-06-05T14:52:32.866Z,29.10
2018-06-05T14:55:01.890Z,30.50
2018-06-05T14:57:30.718Z,30.90
2018-06-05T14:59:59.426Z,32.40
2018-06-05T15:02:28.217Z,31.10
2018-06-05T15:04:57.110Z,31.60
2018-06-05T15:07:26.063Z,31.00
2018-06-05T15:09:54.827Z,32.30
2018-06-05T15:12:23.478Z,29.30
2018-06-05T15:14:52.117Z,29.10
2018-06-05T15:17:21.247Z,29.40
2018-06-05T15:19:50.144Z,31.60
2018-06-05T15:22:18.950Z,29.90
2018-06-05T15:24:47.706Z,29.20
2018-06-05T15:27:16.354Z,28.00
2018-06-05T15:29:45.220Z,27.80
2018-06-05T15:32:13.734Z,25.50
2018-06-05T15:34:42.630Z,25.50
2018-06-05T15:37:11.533Z,26.30
2018-06-05T15:39:40.394Z,28.10
2018-06-05T15:42:08.989Z,29.30
2018-06-05T15:44:37.849Z,30.40
2018-06-05T15:47:06.771Z,32.30
2018-06-05T15:49:35.573Z,32.30
2018-06-05T15:52:04.558Z,30.60
2018-06-05T15:54:33.421Z,31.00
2018-06-05T15:57:02.163Z,30.70
2018-06-05T15:59:30.840Z,28.70
2018-06-05T16:01:59.432Z,30.00
2018-06-05T16:04:28.019Z,33.80
2018-06-05T16:06:56.785Z,37.40
2018-06-05T16:09:25.376Z,38.70
2018-06-05T16:11:53.899Z,41.30
2018-06-05T16:14:22.706Z,42.70
2018-06-05T16:16:51.504Z,44.70
2018-06-05T16:19:20.384Z,45.80
2018-06-05T16:21:49.254Z,48.00
2018-06-05T16:24:17.977Z,48.60
2018-06-05T16:26:46.617Z,48.90
2018-06-05T16:29:15.237Z,47.00
2018-06-05T16:31:43.992Z,47.60
2018-06-05T16:34:12.763Z,48.90
2018-06-05T16:36:41.371Z,49.80
2018-06-05T16:39:09.903Z,50.60
2018-06-05T16:41:38.757Z,48.90
2018-06-05T16:44:07.480Z,47.20
2018-06-05T16:46:36.117Z,46.50
2018-06-05T16:49:05.104Z,48.20
2018-06-05T16:51:35.404Z,49.70
2018-06-05T16:54:04.237Z,50.40
2018-06-05T16:56:33.066Z,51.90
2018-06-05T16:59:01.923Z,53.40
2018-06-05T17:01:30.740Z,54.30
2018-06-05T17:03:59.656Z,54.00
2018-06-05T17:06:28.247Z,53.60
2018-06-05T17:08:57.043Z,54.20
2018-06-05T17:11:27.469Z,55.60
2018-06-05T17:13:56.245Z,56.70
2018-06-05T17:16:25.165Z,56.90
2018-06-05T17:18:53.844Z,57.40
2018-06-05T17:21:22.511Z,57.80
2018-06-05T17:26:19.740Z,58.10
2018-06-05T17:28:48.492Z,58.20
2018-06-05T17:31:17.445Z,58.70
2018-06-05T17:33:46.554Z,59.00
2018-06-05T17:36:15.575Z,59.30
2018-06-05T17:38:44.585Z,59.30
2018-06-05T17:41:13.727Z,59.50
2018-06-05T17:43:42.436Z,60.60
2018-06-05T17:46:11.259Z,59.60
2018-06-05T17:48:39.963Z,60.10
2018-06-05T17:51:08.726Z,61.30
2018-06-05T17:53:37.466Z,62.00
2018-06-05T17:56:06.220Z,62.10
2018-06-05T17:58:35.106Z,62.80
2018-06-05T18:01:03.975Z,63.10
2018-06-05T18:03:32.994Z,62.80
2018-06-05T18:06:01.739Z,62.80
2018-06-05T18:08:30.434Z,63.60
2018-06-05T18:10:59.288Z,65.00
2018-06-05T18:13:28.224Z,65.00
2018-06-05T18:15:56.974Z,66.20
2018-06-05T18:18:25.789Z,66.50
2018-06-05T18:20:55.191Z,67.70
2018-06-05T18:23:24.002Z,68.10
2018-06-05T18:25:52.987Z,68.20
2018-06-05T18:28:21.918Z,69.70
2018-06-05T18:30:50.943Z,70.20
2018-06-05T18:33:20.096Z,71.60
2018-06-05T18:35:49.215Z,72.30
2018-06-05T18:38:17.951Z,72.10
2018-06-05T18:40:46.882Z,72.80
2018-06-05T18:43:15.432Z,73.30
2018-06-05T18:45:44.039Z,74.20
2018-06-05T18:48:12.864Z,74.70
2018-06-05T18:50:41.604Z,76.20
2018-06-05T18:53:10.369Z,77.30
2018-06-05T18:55:39.025Z,78.00
2018-06-05T18:58:07.921Z,78.40
2018-06-05T19:00:36.531Z,79.50
2018-06-05T19:03:05.505Z,79.40
2018-06-05T19:05:34.616Z,79.90
2018-06-05T19:08:03.445Z,80.60
2018-06-05T19:10:32.052Z,82.20
2018-06-05T19:15:29.555Z,83.00
2018-06-05T19:17:58.717Z,82.10
2018-06-05T19:20:27.817Z,83.70
2018-06-05T19:22:56.452Z,85.60
2018-06-05T19:25:25.318Z,85.50
2018-06-05T19:27:54.174Z,85.30
2018-06-05T19:30:23.577Z,85.40
2018-06-05T19:35:21.083Z,87.30
2018-06-05T19:37:49.774Z,87.40
2018-06-05T19:40:18.742Z,87.50
2018-06-05T19:42:47.455Z,89.00
2018-06-05T19:45:16.941Z,89.80
2018-06-05T19:47:45.800Z,89.70
2018-06-05T19:50:14.704Z,90.10
2018-06-05T19:52:43.476Z,90.30
2018-06-05T19:55:12.600Z,90.40
2018-06-05T19:57:41.505Z,90.40
2018-06-05T20:00:10.655Z,90.50
2018-06-05T20:02:39.454Z,90.40
2018-06-05T20:05:08.082Z,90.10
2018-06-05T20:07:36.814Z,90.60
2018-06-05T20:10:05.875Z,90.60
2018-06-05T20:12:34.901Z,90.90
2018-06-05T20:15:03.749Z,91.00
2018-06-05T20:17:32.416Z,91.00
2018-06-05T20:20:01.355Z,91.10
2018-06-05T20:22:30.138Z,91.20
2018-06-05T20:24:59.138Z,91.30
2018-06-05T20:27:27.994Z,91.60
2018-06-05T20:29:56.855Z,92.20
2018-06-05T20:37:23.037Z,93.20
2018-06-05T20:39:52.094Z,93.40
2018-06-05T20:42:20.744Z,93.60
2018-06-05T20:44:49.296Z,93.20
2018-06-05T20:47:18.095Z,93.20
2018-06-05T20:49:46.756Z,93.10
2018-06-05T20:52:15.656Z,92.70
2018-06-05T20:54:44.532Z,93.00
2018-06-05T20:57:13.501Z,93.10
2018-06-05T20:59:42.361Z,93.50
2018-06-05T21:02:10.939Z,93.80
2018-06-05T21:04:39.654Z,93.70
2018-06-05T21:07:08.415Z,93.70
2018-06-05T21:09:37.284Z,93.80
2018-06-05T21:12:05.969Z,94.20
2018-06-05T21:14:34.893Z,94.70
2018-06-05T21:17:03.688Z,94.60
2018-06-05T21:19:32.337Z,94.70
2018-06-05T21:22:01.312Z,95.00
2018-06-05T21:24:29.987Z,95.40
2018-06-05T21:26:58.547Z,95.40
2018-06-05T21:29:27.110Z,95.40
2018-06-05T21:31:55.711Z,95.40
2018-06-05T21:34:24.400Z,95.50
2018-06-05T21:36:53.042Z,95.50
2018-06-05T21:39:21.712Z,95.80
2018-06-05T21:41:50.308Z,95.90
2018-06-05T21:44:18.940Z,96.00
2018-06-05T21:46:47.675Z,95.90
2018-06-05T21:49:16.238Z,95.70
2018-06-05T21:51:44.929Z,95.70
2018-06-05T21:54:13.521Z,95.80
2018-06-05T21:56:42.058Z,96.10
2018-06-05T21:59:10.928Z,96.20
2018-06-05T22:01:39.447Z,96.10
2018-06-05T22:04:08.412Z,95.90
2018-06-05T22:06:36.931Z,96.30
2018-06-05T22:09:08.404Z,96.00
2018-06-05T22:11:36.941Z,96.00
2018-06-05T22:14:05.490Z,96.00
2018-06-05T22:16:34.196Z,96.20
2018-06-05T22:19:02.714Z,96.70
2018-06-05T22:23:59.680Z,96.50
2018-06-05T22:26:28.306Z,96.60
2018-06-05T22:28:56.858Z,96.70
2018-06-05T22:31:25.365Z,96.70
2018-06-05T22:33:53.936Z,96.70
2018-06-05T22:36:22.542Z,96.90
2018-06-05T22:38:51.119Z,97.10
2018-06-05T22:41:19.681Z,97.20
2018-06-05T22:43:48.533Z,97.20
2018-06-05T22:46:17.259Z,97.30
2018-06-05T22:48:45.915Z,97.30
2018-06-05T22:51:14.475Z,97.70
2018-06-05T22:53:43.185Z,97.40
2018-06-05T22:56:11.964Z,97.70
2018-06-05T22:58:40.553Z,97.70
2018-06-05T23:01:09.107Z,97.80
2018-06-05T23:03:37.759Z,98.20
2018-06-05T23:06:06.531Z,97.80
2018-06-05T23:08:35.140Z,97.70
2018-06-05T23:11:03.689Z,97.60
2018-06-05T23:13:32.381Z,97.50
2018-06-05T23:16:01.121Z,97.50
2018-06-05T23:18:29.709Z,97.40
2018-06-05T23:20:58.420Z,97.50
2018-06-05T23:23:27.006Z,97.60
2018-06-05T23:25:55.810Z,97.80
2018-06-05T23:28:24.497Z,97.70
2018-06-05T23:30:53.189Z,97.60
2018-06-05T23:33:21.719Z,97.50
2018-06-05T23:35:50.265Z,97.60
2018-06-05T23:38:18.777Z,97.70
2018-06-05T23:40:47.498Z,97.80
2018-06-05T23:43:16.049Z,97.90
2018-06-05T23:45:44.559Z,98.10
2018-06-05T23:48:13.090Z,98.20
2018-06-05T23:50:42.153Z,98.20
2018-06-05T23:53:10.921Z,98.20
2018-06-05T23:55:39.477Z,98.10
2018-06-05T23:58:08.196Z,98.00
